PILOTS ONLINE: 192    ATC ONLINE: 20

Location

IATA PUJ
City Punta Cana
Country  Dominican Republic
Latitude 18° 34' 2" N
Longitude 68° 21' 48" W
Elevation 47 ft
Type Large Airport

Weather

METAR
2014/07/14 06:00
MDPC 140600Z 00000KT 9999 FEW018 26/23 Q1017 NOSIG
TAF
2014/07/14 06:45
TAF MDPC 140400Z 1406/1506 07006KT 9999 FEW016CB SCT018 SCT080 PROB30 1418/1900 7000 -SHRA FEW016CB SCT018 BKN070 
      BECMG 1412/1414 11005KT

Runways

09/27 10171 ft / 157 ft

Outbound flights

Inbound flights


Spotted incorrect airport information? Please login with your VATSIM ID.